createdAt,value
2023-04-29T00:00:59.688Z,100912.31
2023-04-29T00:03:29.532Z,100935.19
2023-04-29T00:05:57.614Z,100929.69
2023-04-29T00:08:25.621Z,100895.50
2023-04-29T00:10:55.410Z,100847.41
2023-04-29T00:13:23.217Z,100821.38
2023-04-29T00:15:50.920Z,100810.63
2023-04-29T00:18:18.753Z,100818.09
2023-04-29T00:20:46.439Z,100824.81
2023-04-29T00:23:14.174Z,100836.28
2023-04-29T00:25:42.085Z,100845.91
2023-04-29T00:28:11.304Z,100837.84
2023-04-29T00:30:39.110Z,100836.47
2023-04-29T00:33:06.906Z,100841.88
2023-04-29T00:35:36.479Z,100852.13
2023-04-29T00:38:04.341Z,100838.97
2023-04-29T00:40:32.163Z,100828.19
2023-04-29T00:42:59.949Z,100837.66
2023-04-29T00:45:29.481Z,100855.91
2023-04-29T00:47:57.534Z,100854.22
2023-04-29T00:50:26.094Z,100860.66
2023-04-29T00:52:53.882Z,100865.63
2023-04-29T00:55:22.162Z,100887.75
2023-04-29T00:57:52.555Z,100919.00
2023-04-29T01:00:20.705Z,100928.97
2023-04-29T01:02:51.329Z,100937.63
2023-04-29T01:05:19.376Z,100938.97
2023-04-29T01:07:57.990Z,100947.84
2023-04-29T01:10:29.828Z,100951.31
2023-04-29T01:13:08.044Z,100946.31
2023-04-29T01:15:43.417Z,100946.00
2023-04-29T01:18:21.884Z,100958.38
2023-04-29T01:20:50.310Z,100938.31
2023-04-29T01:23:18.151Z,100931.53
2023-04-29T01:25:48.950Z,100933.34
2023-04-29T01:28:40.012Z,100935.59
2023-04-29T01:31:12.089Z,100935.78
2023-04-29T01:33:45.577Z,100944.63
2023-04-29T01:36:23.798Z,100938.34
2023-04-29T01:39:01.625Z,100929.91
2023-04-29T01:41:39.229Z,100918.28
2023-04-29T01:44:19.694Z,100928.19
2023-04-29T01:46:54.201Z,100949.16
2023-04-29T01:49:26.468Z,100935.88
2023-04-29T01:51:54.451Z,100927.16
2023-04-29T01:54:23.172Z,100939.66
2023-04-29T01:56:53.061Z,100955.31
2023-04-29T01:59:30.273Z,100960.66
2023-04-29T02:02:34.431Z,100971.22
2023-04-29T02:05:12.502Z,101004.78
2023-04-29T02:07:44.711Z,101009.28
2023-04-29T02:10:13.058Z,101023.66
2023-04-29T02:12:45.125Z,101037.91
2023-04-29T02:15:13.257Z,101061.94
2023-04-29T02:17:41.434Z,101068.41
2023-04-29T02:20:10.578Z,101046.44
2023-04-29T02:22:38.373Z,101017.09
2023-04-29T02:25:07.287Z,101019.28
2023-04-29T02:27:35.102Z,101021.66
2023-04-29T02:30:04.874Z,101040.00
2023-04-29T02:32:33.146Z,101046.63
2023-04-29T02:35:01.196Z,101046.88
2023-04-29T02:37:29.885Z,101051.41
2023-04-29T02:39:57.660Z,101038.63
2023-04-29T02:42:25.366Z,101022.78
2023-04-29T02:44:53.116Z,101020.84
2023-04-29T02:47:22.386Z,101003.25
2023-04-29T02:49:50.614Z,100995.44
2023-04-29T02:52:19.065Z,100997.63
2023-04-29T02:54:47.988Z,101009.00
2023-04-29T02:57:15.724Z,101009.53
2023-04-29T02:59:44.208Z,101002.72
2023-04-29T03:02:12.758Z,100989.28
2023-04-29T03:04:42.387Z,100984.66
2023-04-29T03:07:10.611Z,100982.47
2023-04-29T03:09:38.410Z,100985.19
2023-04-29T03:12:06.539Z,100990.84
2023-04-29T03:14:34.616Z,100989.53
2023-04-29T03:17:02.970Z,100989.38
2023-04-29T03:19:31.247Z,100995.69
2023-04-29T03:22:00.789Z,100998.75
2023-04-29T03:24:28.721Z,101014.94
2023-04-29T03:26:56.751Z,101020.41
2023-04-29T03:29:24.986Z,101036.63
2023-04-29T03:31:53.045Z,101061.97
2023-04-29T03:34:21.078Z,101082.38
2023-04-29T03:36:57.801Z,101099.09
2023-04-29T03:39:28.204Z,101109.97
2023-04-29T03:41:56.167Z,101109.41
2023-04-29T03:44:24.068Z,101115.28
2023-04-29T03:46:51.828Z,101131.47
2023-04-29T03:49:20.638Z,101144.88
2023-04-29T03:51:48.500Z,101163.34
2023-04-29T03:54:17.802Z,101157.00
2023-04-29T03:56:47.367Z,101160.66
2023-04-29T03:59:15.242Z,101150.09
2023-04-29T04:01:43.670Z,101135.84
2023-04-29T04:04:12.549Z,101164.72
2023-04-29T04:06:51.131Z,101181.22
2023-04-29T04:09:21.574Z,101194.63
2023-04-29T04:11:50.858Z,101165.19
2023-04-29T04:14:19.557Z,101167.88
2023-04-29T04:16:47.332Z,101164.72
2023-04-29T04:19:15.558Z,101172.03
2023-04-29T04:21:46.285Z,101176.53
2023-04-29T04:24:14.674Z,101163.94
2023-04-29T04:26:43.241Z,101163.28
2023-04-29T04:29:18.202Z,101191.38
2023-04-29T04:32:00.105Z,101198.25
2023-04-29T04:34:28.470Z,101205.19
2023-04-29T04:36:58.517Z,101224.44
2023-04-29T04:39:26.385Z,101228.25
2023-04-29T04:41:56.542Z,101220.38
2023-04-29T04:44:26.072Z,101215.25
2023-04-29T04:47:14.133Z,101210.09
2023-04-29T04:49:52.841Z,101222.28
2023-04-29T04:52:39.533Z,101088.13
2023-04-29T04:55:24.326Z,101121.75
2023-04-29T04:57:52.845Z,101141.34
2023-04-29T05:00:20.804Z,101154.25
2023-04-29T05:02:48.709Z,101159.00
2023-04-29T05:05:16.695Z,101150.75
2023-04-29T05:07:46.317Z,101155.09
2023-04-29T05:10:14.379Z,101153.75
2023-04-29T05:12:48.196Z,101163.13
2023-04-29T05:15:17.067Z,101155.66
2023-04-29T05:17:45.871Z,101138.28
2023-04-29T05:20:14.105Z,101131.03
2023-04-29T05:22:41.995Z,101122.69
2023-04-29T05:25:12.471Z,101115.38
2023-04-29T05:27:41.323Z,101109.81
2023-04-29T05:30:13.774Z,101111.81
2023-04-29T05:32:41.685Z,101118.88
2023-04-29T05:35:13.936Z,101104.97
2023-04-29T05:37:42.017Z,101100.56
2023-04-29T05:40:32.025Z,101094.81
2023-04-29T05:43:28.573Z,101108.06
2023-04-29T05:45:59.272Z,101101.19
2023-04-29T05:48:27.011Z,101103.69
2023-04-29T05:50:54.947Z,101098.13
2023-04-29T05:53:22.999Z,101099.50
2023-04-29T05:55:52.402Z,101111.81
2023-04-29T05:58:22.211Z,101118.38
2023-04-29T06:00:50.618Z,101129.91
2023-04-29T06:03:23.283Z,101134.81
2023-04-29T06:06:12.194Z,101153.44
2023-04-29T06:08:58.726Z,101177.66
2023-04-29T06:11:31.471Z,101179.59
2023-04-29T06:13:59.263Z,101182.88
2023-04-29T06:16:27.023Z,101180.72
2023-04-29T06:18:55.955Z,101181.84
2023-04-29T06:21:23.798Z,101188.28
2023-04-29T06:23:53.205Z,101193.84
2023-04-29T06:26:22.401Z,101204.94
2023-04-29T06:28:52.056Z,101191.38
2023-04-29T06:31:21.785Z,101181.84
2023-04-29T06:33:51.198Z,101166.69
2023-04-29T06:36:18.968Z,101163.75
2023-04-29T06:38:58.887Z,101151.50
2023-04-29T06:41:53.415Z,101136.44
2023-04-29T06:44:45.454Z,101135.25
2023-04-29T06:47:39.752Z,101119.31
2023-04-29T06:50:12.372Z,101122.88
2023-04-29T06:52:40.111Z,101115.97
2023-04-29T06:55:08.611Z,101122.00
2023-04-29T06:57:36.769Z,101132.69
2023-04-29T07:00:07.541Z,101140.44
2023-04-29T07:02:35.296Z,101144.66
2023-04-29T07:05:03.973Z,101141.34
2023-04-29T07:07:31.792Z,101135.03
2023-04-29T07:10:00.299Z,101147.22
2023-04-29T07:12:27.990Z,101156.78
2023-04-29T07:14:55.876Z,101149.84
2023-04-29T07:17:25.782Z,101152.16
2023-04-29T07:19:53.893Z,101154.63
2023-04-29T07:22:22.580Z,101163.25
2023-04-29T07:24:50.420Z,101176.53
2023-04-29T07:27:18.260Z,101181.44
2023-04-29T07:29:45.947Z,101196.91
2023-04-29T07:32:13.851Z,101196.19
2023-04-29T07:34:43.280Z,101200.44
2023-04-29T07:37:11.096Z,101186.72
2023-04-29T07:39:39.052Z,101174.78
2023-04-29T07:42:06.872Z,101162.56
2023-04-29T07:44:34.738Z,101147.28
2023-04-29T07:47:02.439Z,101142.91
2023-04-29T07:49:30.309Z,101137.50
2023-04-29T07:52:00.224Z,101134.59
2023-04-29T07:54:27.985Z,101129.31
2023-04-29T07:56:55.981Z,101132.09
2023-04-29T07:59:24.068Z,101116.31
2023-04-29T08:01:52.359Z,101125.94
2023-04-29T08:04:20.995Z,101142.91
2023-04-29T08:06:54.731Z,101147.41
2023-04-29T08:09:23.780Z,101173.84
2023-04-29T08:11:51.436Z,101168.34
2023-04-29T08:14:19.165Z,101177.53
2023-04-29T08:16:46.876Z,101175.63
2023-04-29T08:19:14.558Z,101169.88
2023-04-29T08:21:42.686Z,101167.69
2023-04-29T08:24:10.433Z,101176.31
2023-04-29T08:26:41.221Z,101169.38
2023-04-29T08:29:09.003Z,101165.63
2023-04-29T08:31:36.733Z,101161.97
2023-04-29T08:34:04.560Z,101176.34
2023-04-29T08:36:32.301Z,101171.81
2023-04-29T08:38:59.932Z,101169.69
2023-04-29T08:41:27.938Z,101170.38
2023-04-29T08:43:57.206Z,101176.91
2023-04-29T08:46:26.968Z,101167.28
2023-04-29T08:48:58.868Z,101173.56
2023-04-29T08:51:26.601Z,101168.75
2023-04-29T08:53:54.374Z,101174.16
2023-04-29T08:56:23.178Z,101163.94
2023-04-29T08:58:54.451Z,101175.00
2023-04-29T09:01:24.760Z,101189.56
2023-04-29T09:03:58.482Z,101196.91
2023-04-29T09:06:26.701Z,101194.47
2023-04-29T09:08:55.118Z,101194.28
2023-04-29T09:11:23.739Z,101188.72
2023-04-29T09:13:51.429Z,101187.59
2023-04-29T09:16:19.534Z,101194.06
2023-04-29T09:18:50.306Z,101204.59
2023-04-29T09:21:22.319Z,101196.59
2023-04-29T09:23:52.575Z,101204.09
2023-04-29T09:26:20.756Z,101198.41
2023-04-29T09:28:49.867Z,101206.28
2023-04-29T09:31:28.774Z,101205.94
2023-04-29T09:33:59.072Z,101215.19
2023-04-29T09:36:41.153Z,101218.00
2023-04-29T09:39:12.561Z,101227.16
2023-04-29T09:41:59.037Z,101216.59
2023-04-29T09:44:29.513Z,101213.47
2023-04-29T09:47:02.372Z,101212.59
2023-04-29T09:49:35.532Z,101225.81
2023-04-29T09:52:05.102Z,101235.63
2023-04-29T09:54:36.346Z,101226.22
2023-04-29T09:57:07.245Z,101225.50
2023-04-29T09:59:37.404Z,101225.34
2023-04-29T10:02:09.347Z,101220.63
2023-04-29T10:04:42.446Z,101227.53
2023-04-29T10:07:15.014Z,101219.00
2023-04-29T10:09:42.919Z,101233.38
2023-04-29T10:12:11.107Z,101219.59
2023-04-29T10:14:45.728Z,101229.34
2023-04-29T10:17:20.086Z,101231.28
2023-04-29T10:19:59.385Z,101232.22
2023-04-29T10:22:32.592Z,101221.06
2023-04-29T10:25:02.189Z,101231.19
2023-04-29T10:27:34.832Z,101228.38
2023-04-29T10:30:05.007Z,101238.03
2023-04-29T10:32:49.694Z,101251.81
2023-04-29T10:35:23.708Z,101254.94
2023-04-29T10:37:52.932Z,101265.44
2023-04-29T10:40:26.205Z,101270.84
2023-04-29T10:42:54.940Z,101288.78
2023-04-29T10:45:25.164Z,101291.00
2023-04-29T10:48:13.299Z,101300.72
2023-04-29T10:51:02.586Z,101327.97
2023-04-29T10:53:30.738Z,101348.53
2023-04-29T10:56:00.943Z,101358.91
2023-04-29T10:58:36.696Z,101366.41
2023-04-29T11:01:04.734Z,101374.06
2023-04-29T11:03:48.322Z,101391.19
2023-04-29T11:06:18.094Z,101403.56
2023-04-29T11:08:45.834Z,101409.31
2023-04-29T11:11:15.527Z,101414.38
2023-04-29T11:13:47.871Z,101426.75
2023-04-29T11:16:15.858Z,101428.13
2023-04-29T11:19:07.844Z,101426.66
2023-04-29T11:21:38.026Z,101430.59
2023-04-29T11:24:07.511Z,101427.75
2023-04-29T11:26:36.395Z,101435.69
2023-04-29T11:29:05.856Z,101427.25
2023-04-29T11:31:34.654Z,101438.19
2023-04-29T11:34:02.456Z,101431.72
2023-04-29T11:36:32.599Z,101440.56
2023-04-29T11:39:03.528Z,101450.88
2023-04-29T11:41:32.473Z,101455.50
2023-04-29T11:44:01.348Z,101458.22
2023-04-29T11:46:32.241Z,101463.41
2023-04-29T11:49:01.156Z,101463.72
2023-04-29T11:51:29.877Z,101461.41
2023-04-29T11:53:58.796Z,101466.22
2023-04-29T11:56:28.059Z,101470.50
2023-04-29T11:58:56.723Z,101480.09
2023-04-29T12:01:24.651Z,101486.19
2023-04-29T12:03:52.563Z,101499.81
2023-04-29T12:06:20.590Z,101500.50
2023-04-29T12:08:48.278Z,101503.91
2023-04-29T12:11:16.069Z,101505.44
2023-04-29T12:13:46.278Z,101502.66
2023-04-29T12:16:14.408Z,101512.00
2023-04-29T12:18:42.278Z,101525.19
2023-04-29T12:21:10.364Z,101523.16
2023-04-29T12:23:39.264Z,101522.09
2023-04-29T12:26:07.999Z,101529.56
2023-04-29T12:28:35.736Z,101541.41
2023-04-29T12:31:04.816Z,101538.91
2023-04-29T12:33:32.834Z,101553.22
2023-04-29T12:36:00.541Z,101546.91
2023-04-29T12:38:31.208Z,101545.47
2023-04-29T12:41:01.008Z,101552.75
2023-04-29T12:43:29.353Z,101557.06
2023-04-29T12:46:02.365Z,101564.28
2023-04-29T12:48:33.594Z,101574.50
2023-04-29T12:51:02.161Z,101559.13
2023-04-29T12:53:31.156Z,101566.78
2023-04-29T12:55:59.484Z,101564.94
2023-04-29T12:58:30.252Z,101565.44
2023-04-29T13:00:58.257Z,101575.03
2023-04-29T13:03:26.879Z,101582.09
2023-04-29T13:05:56.313Z,101583.66
2023-04-29T13:08:24.414Z,101586.66
2023-04-29T13:10:52.156Z,101591.31
2023-04-29T13:13:19.865Z,101605.56
2023-04-29T13:15:47.590Z,101609.81
2023-04-29T13:18:15.925Z,101604.00
2023-04-29T13:20:43.754Z,101614.25
2023-04-29T13:23:13.012Z,101613.97
2023-04-29T13:25:41.106Z,101617.97
2023-04-29T13:28:08.877Z,101627.09
2023-04-29T13:30:37.106Z,101631.34
2023-04-29T13:33:11.772Z,101621.25
2023-04-29T13:35:41.608Z,101634.66
2023-04-29T13:38:09.816Z,101640.28
2023-04-29T13:40:45.264Z,101647.44
2023-04-29T13:43:18.631Z,101647.81
2023-04-29T13:45:53.167Z,101644.53
2023-04-29T13:54:01.867Z,101656.56
2023-04-29T14:01:44.118Z,101659.84
2023-04-29T14:04:03.219Z,101662.75
2023-04-29T14:06:32.562Z,101660.03
2023-04-29T14:09:01.686Z,101676.13
2023-04-29T14:11:36.471Z,101688.34
2023-04-29T14:14:04.771Z,101699.50
2023-04-29T14:16:32.955Z,101702.63
2023-04-29T14:19:02.997Z,101713.47
2023-04-29T14:21:33.070Z,101713.06
2023-04-29T14:24:02.441Z,101730.94
2023-04-29T14:26:30.936Z,101728.72
2023-04-29T14:29:01.317Z,101746.13
2023-04-29T14:31:30.563Z,101752.69
2023-04-29T14:33:59.220Z,101762.41
2023-04-29T14:36:28.280Z,101769.78
2023-04-29T14:38:56.044Z,101774.53
2023-04-29T14:41:24.266Z,101785.41
2023-04-29T14:43:52.179Z,101798.66
2023-04-29T14:46:22.358Z,101802.66
2023-04-29T14:48:50.970Z,101806.75
2023-04-29T14:51:19.115Z,101807.91
2023-04-29T14:53:46.855Z,101813.06
2023-04-29T14:56:14.920Z,101811.78
2023-04-29T14:58:42.605Z,101796.06
2023-04-29T15:01:10.799Z,101805.19
2023-04-29T15:03:44.073Z,101817.66
2023-04-29T15:06:12.717Z,101822.88
2023-04-29T15:08:40.626Z,101825.00
2023-04-29T15:11:08.379Z,101835.19
2023-04-29T15:13:36.070Z,101818.81
2023-04-29T15:16:04.391Z,101829.09
2023-04-29T15:18:32.174Z,101831.59
2023-04-29T15:21:01.572Z,101828.88
2023-04-29T15:23:29.482Z,101840.97
2023-04-29T15:25:57.648Z,101845.41
2023-04-29T15:28:25.913Z,101848.72
2023-04-29T15:30:53.693Z,101856.56
2023-04-29T15:33:21.497Z,101857.72
2023-04-29T15:35:49.330Z,101865.97
2023-04-29T15:38:18.502Z,101863.06
2023-04-29T15:40:46.449Z,101861.72
2023-04-29T15:43:14.266Z,101859.34
2023-04-29T15:45:42.574Z,101865.97
2023-04-29T15:48:10.405Z,101867.16
2023-04-29T15:50:38.201Z,101878.97
2023-04-29T15:53:05.906Z,101886.53
2023-04-29T15:55:36.337Z,101886.75
2023-04-29T15:58:04.170Z,101894.41
2023-04-29T16:00:32.554Z,101889.88
2023-04-29T16:03:00.391Z,101896.47
2023-04-29T16:05:28.873Z,101898.00
2023-04-29T16:07:56.730Z,101902.47
2023-04-29T16:10:24.587Z,101909.66
2023-04-29T16:12:53.902Z,101919.09
2023-04-29T16:15:21.753Z,101921.50
2023-04-29T16:17:50.608Z,101919.53
2023-04-29T16:20:19.326Z,101917.16
2023-04-29T16:22:47.268Z,101920.53
2023-04-29T16:25:15.168Z,101925.16
2023-04-29T16:27:42.883Z,101932.88
2023-04-29T16:30:13.468Z,101931.22
2023-04-29T16:32:41.598Z,101921.16
2023-04-29T16:35:10.319Z,101923.59
2023-04-29T16:37:38.646Z,101925.16
2023-04-29T16:40:08.074Z,101928.06
2023-04-29T16:42:36.307Z,101922.97
2023-04-29T16:45:04.066Z,101924.28
2023-04-29T16:47:35.442Z,101934.75
2023-04-29T16:50:04.040Z,101945.63
2023-04-29T16:52:31.835Z,101941.81
2023-04-29T16:55:01.446Z,101948.34
2023-04-29T16:57:29.185Z,101942.44
2023-04-29T16:59:57.043Z,101943.16
2023-04-29T17:02:25.082Z,101949.44
2023-04-29T17:04:54.547Z,101948.41
2023-04-29T17:07:22.456Z,101944.22
2023-04-29T17:09:50.199Z,101945.03
2023-04-29T17:12:17.998Z,101953.19
2023-04-29T17:14:48.274Z,101950.75
2023-04-29T17:17:16.048Z,101949.44
2023-04-29T17:19:44.038Z,101947.56
2023-04-29T17:22:13.208Z,101951.59
2023-04-29T17:24:44.744Z,101946.22
2023-04-29T17:27:13.100Z,101951.06
2023-04-29T17:29:41.392Z,101956.47
2023-04-29T17:32:11.347Z,101951.28
2023-04-29T17:34:39.259Z,101948.34
2023-04-29T17:37:07.910Z,101953.63
2023-04-29T17:39:37.231Z,101958.06
2023-04-29T17:42:05.123Z,101964.84
2023-04-29T17:44:32.850Z,101961.78
2023-04-29T17:47:00.576Z,101963.69
2023-04-29T17:49:28.371Z,101964.06
2023-04-29T17:51:57.005Z,101969.22
2023-04-29T17:54:26.175Z,101969.38
2023-04-29T17:56:55.717Z,101972.44
2023-04-29T17:59:23.482Z,101977.59
2023-04-29T18:01:51.257Z,101975.94
2023-04-29T18:04:19.070Z,101963.69
2023-04-29T18:06:46.986Z,101973.06
2023-04-29T18:09:16.539Z,101979.78
2023-04-29T18:11:44.443Z,101990.84
2023-04-29T18:14:13.657Z,101988.28
2023-04-29T18:16:41.400Z,101992.47
2023-04-29T18:19:09.133Z,101989.03
2023-04-29T18:21:37.062Z,101987.41
2023-04-29T18:24:05.365Z,101990.44
2023-04-29T18:26:33.412Z,101996.56
2023-04-29T18:29:01.166Z,101990.25
2023-04-29T18:31:30.437Z,101987.91
2023-04-29T18:33:58.204Z,101992.69
2023-04-29T18:36:26.649Z,101995.59
2023-04-29T18:38:54.517Z,102006.56
2023-04-29T18:41:22.372Z,102005.97
2023-04-29T18:43:50.173Z,102002.47
2023-04-29T18:46:18.082Z,101996.50
2023-04-29T18:48:47.298Z,102000.69
2023-04-29T18:51:15.060Z,102001.72
2023-04-29T18:53:42.950Z,102000.84
2023-04-29T18:56:10.782Z,102011.06
2023-04-29T18:58:38.558Z,102016.63
2023-04-29T19:01:06.674Z,102023.03
2023-04-29T19:03:34.512Z,102019.56
2023-04-29T19:06:03.892Z,102023.41
2023-04-29T19:08:32.239Z,102029.25
2023-04-29T19:11:00.882Z,102030.44
2023-04-29T19:13:29.336Z,102039.66
2023-04-29T19:15:57.303Z,102040.72
2023-04-29T19:18:25.099Z,102039.28
2023-04-29T19:20:53.574Z,102048.50
2023-04-29T19:23:22.972Z,102052.88
2023-04-29T19:25:50.746Z,102050.63
2023-04-29T19:28:19.282Z,102058.97
2023-04-29T19:30:47.161Z,102060.22
2023-04-29T19:33:15.077Z,102070.53
2023-04-29T19:35:42.834Z,102072.66
2023-04-29T19:38:11.097Z,102070.19
2023-04-29T19:40:40.424Z,102078.81
2023-04-29T19:43:08.396Z,102076.38
2023-04-29T19:45:36.293Z,102081.97
2023-04-29T19:48:05.025Z,102085.88
2023-04-29T19:50:33.082Z,102088.16
2023-04-29T19:53:00.844Z,102090.91
2023-04-29T19:55:28.709Z,102099.91
2023-04-29T19:57:58.531Z,102103.84
2023-04-29T20:00:27.025Z,102112.16
2023-04-29T20:02:54.869Z,102108.63
2023-04-29T20:05:22.915Z,102117.06
2023-04-29T20:07:50.904Z,102121.00
2023-04-29T20:10:18.603Z,102127.34
2023-04-29T20:12:46.697Z,102134.59
2023-04-29T20:15:16.481Z,102132.22
2023-04-29T20:17:44.446Z,102143.94
2023-04-29T20:20:12.586Z,102147.50
2023-04-29T20:22:40.340Z,102149.56
2023-04-29T20:25:08.787Z,102165.78
2023-04-29T20:27:36.752Z,102157.63
2023-04-29T20:30:05.418Z,102165.13
2023-04-29T20:32:34.594Z,102173.44
2023-04-29T20:35:02.596Z,102185.06
2023-04-29T20:37:31.711Z,102190.56
2023-04-29T20:39:59.540Z,102201.53
2023-04-29T20:42:27.270Z,102205.31
2023-04-29T20:44:55.240Z,102205.41
2023-04-29T20:47:23.210Z,102220.00
2023-04-29T20:49:52.257Z,102223.03
2023-04-29T20:52:20.366Z,102228.91
2023-04-29T20:54:48.295Z,102240.34
2023-04-29T20:57:16.198Z,102249.53
2023-04-29T20:59:44.201Z,102256.75
2023-04-29T21:02:12.134Z,102256.22
2023-04-29T21:04:40.184Z,102270.09
2023-04-29T21:07:10.266Z,102275.56
2023-04-29T21:09:38.653Z,102285.38
2023-04-29T21:12:06.848Z,102297.09
2023-04-29T21:14:34.997Z,102309.09
2023-04-29T21:17:02.861Z,102322.59
2023-04-29T21:19:30.725Z,102329.03
2023-04-29T21:21:58.797Z,102341.50
2023-04-29T21:24:28.733Z,102339.06
2023-04-29T21:26:56.573Z,102352.72
2023-04-29T21:29:24.336Z,102351.97
2023-04-29T21:31:52.779Z,102353.00
2023-04-29T21:34:20.624Z,102351.34
2023-04-29T21:36:48.612Z,102358.50
2023-04-29T21:39:16.704Z,102357.06
2023-04-29T21:41:46.149Z,102356.19
2023-04-29T21:44:14.605Z,102356.31
2023-04-29T21:46:42.541Z,102356.53
2023-04-29T21:49:10.686Z,102370.88
2023-04-29T21:51:38.647Z,102373.91
2023-04-29T21:54:08.488Z,102374.75
2023-04-29T21:56:36.833Z,102382.19
2023-04-29T21:59:06.449Z,102393.91
2023-04-29T22:01:49.458Z,102391.56
2023-04-29T22:04:17.549Z,102391.16
2023-04-29T22:06:46.074Z,102392.88
2023-04-29T22:09:14.005Z,102395.50
2023-04-29T22:11:42.381Z,102399.03
2023-04-29T22:14:11.730Z,102407.22
2023-04-29T22:16:39.581Z,102419.91
2023-04-29T22:19:07.618Z,102411.00
2023-04-29T22:21:35.579Z,102417.38
2023-04-29T22:24:03.347Z,102421.00
2023-04-29T22:26:31.260Z,102414.66
2023-04-29T22:28:59.074Z,102418.41
2023-04-29T22:31:28.662Z,102413.41
2023-04-29T22:33:56.467Z,102411.53
2023-04-29T22:36:24.243Z,102418.16
2023-04-29T22:38:52.483Z,102422.66
2023-04-29T22:41:20.337Z,102424.69
2023-04-29T22:43:48.257Z,102416.44
2023-04-29T22:46:16.247Z,102418.50
2023-04-29T22:48:45.586Z,102426.63
2023-04-29T22:51:13.315Z,102433.25
2023-04-29T22:53:41.079Z,102440.34
2023-04-29T22:56:08.932Z,102436.25
2023-04-29T22:58:36.856Z,102438.06
2023-04-29T23:01:04.729Z,102431.63
2023-04-29T23:03:32.510Z,102430.94
2023-04-29T23:06:02.608Z,102440.78
2023-04-29T23:08:30.592Z,102437.41
2023-04-29T23:10:58.541Z,102427.50
2023-04-29T23:13:26.504Z,102445.34
2023-04-29T23:15:56.640Z,102444.59
2023-04-29T23:18:24.623Z,102444.63
2023-04-29T23:20:52.918Z,102451.00
2023-04-29T23:23:22.190Z,102453.59
2023-04-29T23:25:50.543Z,102456.38
2023-04-29T23:28:18.423Z,102460.09
2023-04-29T23:30:47.731Z,102452.06
2023-04-29T23:33:15.743Z,102456.66
2023-04-29T23:35:49.617Z,102452.25
2023-04-29T23:38:17.583Z,102432.38
2023-04-29T23:40:47.359Z,102436.81
2023-04-29T23:43:15.779Z,102435.19
2023-04-29T23:45:45.145Z,102441.81
2023-04-29T23:48:13.344Z,102431.88
2023-04-29T23:50:41.812Z,102434.34
2023-04-29T23:53:09.686Z,102436.34
2023-04-29T23:55:37.504Z,102438.78
2023-04-29T23:58:07.655Z,102438.16
